Time;durP1;ratioP1;P1;durP2;ratioP2;P2;SDS_P1;SDS_P2;PMS_P1;PMS_P2;Temp;Humidity;BMP_temperature;BMP_pressure;BME280_temperature;BME280_humidity;BME280_pressure;Samples;Min_cycle;Max_cycle;Signal;HPM_P1;HPM_P2
2022/04/07 00:00:49;;;;;;;12.73;2.40;;;;;;;5.80;100.00;95530.50;5060956;28;20028;-83
2022/04/07 00:03:15;;;;;;;14.80;2.25;;;;;;;5.85;100.00;95527.94;5044789;28;20124;-83
2022/04/07 00:05:41;;;;;;;10.65;2.42;;;;;;;5.70;100.00;95535.66;5056089;28;20024;-83
2022/04/07 00:08:06;;;;;;;11.10;1.77;;;;;;;5.77;100.00;95531.00;5053960;28;20041;-83
2022/04/07 00:10:33;;;;;;;9.40;2.42;;;;;;;5.68;100.00;95522.09;5060426;28;20032;-82
2022/04/07 00:12:59;;;;;;;8.80;2.03;;;;;;;5.69;100.00;95519.25;5041322;28;20466;-83
2022/04/07 00:15:24;;;;;;;10.48;2.35;;;;;;;5.70;100.00;95494.78;5060099;28;20047;-81
2022/04/07 00:17:51;;;;;;;9.65;2.00;;;;;;;5.78;100.00;95511.75;5063109;28;20391;-84
2022/04/07 00:20:16;;;;;;;16.83;2.60;;;;;;;5.75;100.00;95475.03;5062643;28;20029;-83
2022/04/07 00:22:42;;;;;;;7.63;2.10;;;;;;;5.86;100.00;95510.50;5062437;28;20417;-84
2022/04/07 00:25:08;;;;;;;13.85;1.73;;;;;;;5.79;100.00;95483.91;5063632;28;20025;-83
2022/04/07 00:27:34;;;;;;;7.18;2.30;;;;;;;5.57;100.00;95477.00;5068067;28;20044;-82
2022/04/07 00:29:59;;;;;;;10.90;2.10;;;;;;;5.64;100.00;95480.19;5061804;28;20466;-83
2022/04/07 00:32:26;;;;;;;10.75;2.47;;;;;;;5.70;100.00;95463.56;5059931;28;20017;-83
2022/04/07 00:34:54;;;;;;;13.35;2.45;;;;;;;5.72;100.00;95476.34;5063897;28;20033;-83
2022/04/07 00:37:24;;;;;;;12.27;2.42;;;;;;;5.88;100.00;95479.81;5069936;28;20040;-83
2022/04/07 00:39:52;;;;;;;14.15;2.65;;;;;;;5.96;100.00;95478.53;5065692;28;20060;-83
2022/04/07 00:42:18;;;;;;;9.68;2.13;;;;;;;5.97;100.00;95472.31;5066067;28;20481;-84
2022/04/07 00:44:44;;;;;;;5.60;1.98;;;;;;;5.90;100.00;95472.53;5063729;28;20032;-83
2022/04/07 00:47:13;;;;;;;18.38;2.40;;;;;;;6.04;100.00;95459.84;5061156;28;20387;-83
2022/04/07 00:49:38;;;;;;;8.63;2.30;;;;;;;5.89;100.00;95444.94;5060783;28;20032;-84
2022/04/07 00:52:06;;;;;;;7.28;2.38;;;;;;;6.00;100.00;95463.97;5066657;28;20379;-84
2022/04/07 00:54:32;;;;;;;16.65;2.42;;;;;;;5.79;100.00;95443.06;5061431;28;20035;-83
2022/04/07 00:56:59;;;;;;;7.35;2.00;;;;;;;5.84;100.00;95422.25;5066775;28;20131;-83
2022/04/07 00:59:26;;;;;;;14.15;2.47;;;;;;;5.79;100.00;95408.44;5063194;28;20067;-84
2022/04/07 01:01:51;;;;;;;9.07;2.45;;;;;;;5.92;100.00;95412.41;5065325;28;20060;-84
2022/04/07 01:04:17;;;;;;;14.75;2.20;;;;;;;5.83;100.00;95414.72;5064364;28;20495;-84
2022/04/07 01:06:43;;;;;;;8.80;2.40;;;;;;;5.82;100.00;95403.50;5061817;28;20060;-83
2022/04/07 01:09:13;;;;;;;10.95;2.13;;;;;;;5.96;100.00;95408.25;5060868;28;20028;-83
2022/04/07 01:11:41;;;;;;;17.42;2.47;;;;;;;5.87;100.00;95358.50;5060013;28;20025;-83
2022/04/07 01:14:07;;;;;;;11.32;2.10;;;;;;;6.01;100.00;95377.06;5061963;28;20036;-83
2022/04/07 01:16:34;;;;;;;15.25;2.20;;;;;;;5.89;100.00;95366.84;5064566;28;20121;-83
2022/04/07 01:19:01;;;;;;;17.20;3.08;;;;;;;5.90;100.00;95358.00;5068116;28;20029;-83
2022/04/07 01:21:30;;;;;;;13.63;3.75;;;;;;;5.88;100.00;95365.28;5066001;28;20028;-84
2022/04/07 01:24:02;;;;;;;14.77;2.30;;;;;;;5.86;100.00;95364.75;5049661;28;20024;-84
2022/04/07 01:26:31;;;;;;;11.00;2.53;;;;;;;5.78;100.00;95345.22;5067391;28;20025;-84
2022/04/07 01:28:56;;;;;;;18.98;2.67;;;;;;;5.89;100.00;95340.03;5065498;28;20032;-84
2022/04/07 01:31:22;;;;;;;10.10;2.80;;;;;;;5.89;100.00;95363.44;5066934;28;20036;-84
2022/04/07 01:33:47;;;;;;;13.35;2.50;;;;;;;5.83;100.00;95347.81;5066010;28;20122;-84
2022/04/07 01:36:14;;;;;;;13.30;2.33;;;;;;;5.93;100.00;95341.09;5063717;28;20107;-83
2022/04/07 01:38:40;;;;;;;14.07;2.97;;;;;;;5.97;100.00;95336.94;5065528;28;20416;-84
2022/04/07 01:41:07;;;;;;;20.35;3.15;;;;;;;5.80;100.00;95348.34;5059638;28;20032;-84
2022/04/07 01:43:33;;;;;;;15.55;2.28;;;;;;;5.85;100.00;95324.16;5062704;28;20051;-83
2022/04/07 01:46:00;;;;;;;11.70;2.22;;;;;;;5.63;100.00;95317.31;5058006;28;20036;-84
2022/04/07 01:48:26;;;;;;;19.58;3.40;;;;;;;5.62;100.00;95301.94;5059920;28;20089;-84
2022/04/07 01:50:52;;;;;;;15.07;2.50;;;;;;;5.66;100.00;95308.19;5061907;28;20056;-83
2022/04/07 01:53:18;;;;;;;14.02;2.33;;;;;;;5.74;100.00;95312.94;5066672;28;20123;-84
2022/04/07 01:55:44;;;;;;;10.55;2.20;;;;;;;5.57;100.00;95295.69;5063932;28;20032;-83
2022/04/07 01:58:11;;;;;;;12.70;2.13;;;;;;;5.64;100.00;95318.09;5060824;28;20029;-83
2022/04/07 02:00:36;;;;;;;16.52;2.65;;;;;;;5.75;100.00;95298.09;5069469;28;20501;-83
2022/04/07 02:03:05;;;;;;;19.30;2.80;;;;;;;5.57;100.00;95267.09;5061464;28;20028;-83
2022/04/07 02:05:31;;;;;;;13.20;2.00;;;;;;;5.63;100.00;95274.91;5061670;28;20033;-83
2022/04/07 02:07:58;;;;;;;9.15;2.13;;;;;;;5.50;100.00;95261.34;5061479;28;20032;-83
2022/04/07 02:10:23;;;;;;;8.32;2.67;;;;;;;5.41;100.00;95252.47;5065655;28;20028;-84
2022/04/07 02:12:49;;;;;;;12.10;4.05;;;;;;;5.44;100.00;95262.34;5062372;28;20070;-84
2022/04/07 02:15:16;;;;;;;12.65;2.10;;;;;;;5.54;100.00;95272.81;5061912;28;20044;-83
2022/04/07 02:17:41;;;;;;;14.00;2.20;;;;;;;5.57;100.00;95280.09;5066525;28;20028;-83
2022/04/07 02:20:09;;;;;;;7.43;1.80;;;;;;;5.64;100.00;95261.66;5064384;28;20385;-82
2022/04/07 02:22:35;;;;;;;12.35;2.00;;;;;;;5.56;100.00;95275.94;5062458;28;20036;-82
2022/04/07 02:25:03;;;;;;;13.10;2.50;;;;;;;5.60;100.00;95265.00;5064691;28;20067;-82
2022/04/07 02:27:39;;;;;;;11.20;2.65;;;;;;;5.47;100.00;95256.63;5060420;28;20043;-83
2022/04/07 02:30:07;;;;;;;12.88;2.05;;;;;;;5.52;100.00;95263.69;5060739;28;20117;-83
2022/04/07 02:32:33;;;;;;;11.73;2.55;;;;;;;5.55;100.00;95258.75;5064905;28;20370;-83
2022/04/07 02:34:59;;;;;;;8.82;2.15;;;;;;;5.74;100.00;95247.88;5063959;28;20043;-83
2022/04/07 02:37:27;;;;;;;8.45;1.90;;;;;;;5.56;100.00;95254.31;5066393;28;20029;-83
2022/04/07 02:39:53;;;;;;;16.88;3.05;;;;;;;5.53;100.00;95244.44;5061643;28;20029;-84
2022/04/07 02:42:19;;;;;;;14.02;2.55;;;;;;;5.81;100.00;95253.59;5041941;28;20029;-84
2022/04/07 02:44:45;;;;;;;15.73;3.17;;;;;;;5.80;100.00;95269.50;5059716;28;20398;-84
2022/04/07 02:47:10;;;;;;;11.65;2.55;;;;;;;5.84;100.00;95223.69;5061902;28;20040;-84
2022/04/07 02:49:39;;;;;;;18.13;2.25;;;;;;;5.73;100.00;95248.91;5064054;28;20367;-84
2022/04/07 02:52:09;;;;;;;15.45;2.55;;;;;;;5.60;100.00;95245.00;5064956;28;20056;-84
2022/04/07 02:54:35;;;;;;;12.63;2.28;;;;;;;5.60;100.00;95228.59;5063343;28;20036;-84
2022/04/07 02:57:01;;;;;;;8.02;2.08;;;;;;;5.65;100.00;95211.16;5067207;28;20035;-84
2022/04/07 02:59:26;;;;;;;11.25;2.25;;;;;;;5.46;100.00;95233.50;5065346;28;20032;-83
2022/04/07 03:01:53;;;;;;;21.48;3.08;;;;;;;5.50;100.00;95227.53;5060894;28;20446;-82
2022/04/07 03:04:19;;;;;;;10.30;2.47;;;;;;;5.38;100.00;95201.72;5065387;28;20033;-84
2022/04/07 03:06:44;;;;;;;8.82;1.63;;;;;;;5.52;100.00;95191.63;5041231;28;20020;-84
2022/04/07 03:09:10;;;;;;;10.38;1.90;;;;;;;5.43;100.00;95203.56;5059800;28;20424;-85
2022/04/07 03:11:36;;;;;;;10.52;2.25;;;;;;;5.30;100.00;95184.03;5062113;28;20025;-84
2022/04/07 03:14:02;;;;;;;13.25;2.75;;;;;;;5.31;100.00;95195.22;5060350;28;20029;-84
2022/04/07 03:16:27;;;;;;;11.35;2.38;;;;;;;5.37;100.00;95209.81;5056514;28;20387;-85
2022/04/07 03:18:53;;;;;;;19.02;3.03;;;;;;;5.24;100.00;95180.63;5063286;28;20036;-84
2022/04/07 03:21:19;;;;;;;7.05;1.88;;;;;;;5.29;100.00;95167.63;5055179;28;20036;-83
2022/04/07 03:23:45;;;;;;;11.38;2.83;;;;;;;5.37;100.00;95168.19;5057091;28;20029;-85
2022/04/07 03:26:10;;;;;;;12.93;3.88;;;;;;;5.42;100.00;95131.78;5058887;28;20025;-83
2022/04/07 03:28:36;;;;;;;9.82;1.67;;;;;;;5.57;100.00;95178.63;5066658;28;20067;-84
2022/04/07 03:31:02;;;;;;;11.07;1.92;;;;;;;5.46;100.00;95166.63;5060620;28;20028;-85
2022/04/07 03:33:27;;;;;;;8.93;1.55;;;;;;;5.53;100.00;95162.00;5060131;28;20028;-84
2022/04/07 03:35:53;;;;;;;8.20;1.98;;;;;;;5.42;100.00;95157.78;5060985;28;20071;-84
2022/04/07 03:38:19;;;;;;;9.80;1.80;;;;;;;5.41;100.00;95143.22;5065559;28;20048;-85
2022/04/07 03:40:45;;;;;;;17.08;2.15;;;;;;;5.47;100.00;95149.22;5060378;28;20056;-83
2022/04/07 03:43:11;;;;;;;10.98;1.85;;;;;;;5.38;100.00;95161.94;5058944;28;20040;-84
2022/04/07 03:45:36;;;;;;;15.48;2.03;;;;;;;5.19;100.00;95159.81;5071560;28;20040;-85
2022/04/07 03:48:02;;;;;;;10.70;2.08;;;;;;;5.01;100.00;95184.44;5063648;28;20086;-83
2022/04/07 03:50:27;;;;;;;8.48;1.98;;;;;;;4.86;100.00;95196.34;5064258;28;20020;-83
2022/04/07 03:52:53;;;;;;;11.70;1.75;;;;;;;4.83;100.00;95180.47;5061044;28;20044;-84
2022/04/07 03:55:20;;;;;;;8.88;1.75;;;;;;;4.86;100.00;95232.72;5061133;28;20396;-83
2022/04/07 03:57:46;;;;;;;7.00;1.48;;;;;;;4.60;100.00;95224.00;5066787;28;20451;-84
2022/04/07 04:00:12;;;;;;;13.68;2.15;;;;;;;4.43;100.00;95214.53;5063319;28;20028;-84
2022/04/07 04:02:38;;;;;;;7.93;1.50;;;;;;;4.47;100.00;95234.81;5061363;28;20032;-85
2022/04/07 04:05:03;;;;;;;9.25;1.90;;;;;;;4.40;100.00;95224.63;5061038;28;20036;-85
2022/04/07 04:07:29;;;;;;;7.55;1.67;;;;;;;4.55;100.00;95201.38;5062112;28;20440;-85
2022/04/07 04:09:55;;;;;;;8.73;1.50;;;;;;;4.70;100.00;95215.50;5061824;28;20048;-84
2022/04/07 04:12:20;;;;;;;7.32;1.70;;;;;;;4.56;100.00;95174.38;5067095;28;20051;-84
2022/04/07 04:14:46;;;;;;;11.95;2.28;;;;;;;4.54;100.00;95178.25;5060164;28;20047;-84
2022/04/07 04:17:11;;;;;;;10.68;1.90;;;;;;;4.39;100.00;95171.16;5064090;28;20033;-85
2022/04/07 04:19:37;;;;;;;11.90;2.58;;;;;;;4.41;100.00;95190.66;5065466;28;20033;-85
2022/04/07 04:22:02;;;;;;;9.65;2.35;;;;;;;4.58;100.00;95189.72;5064241;28;20486;-85
2022/04/07 04:24:28;;;;;;;11.18;2.35;;;;;;;4.58;100.00;95174.13;5064620;28;20033;-83
2022/04/07 04:26:54;;;;;;;9.52;2.40;;;;;;;4.47;100.00;95186.28;5064181;28;20038;-82
2022/04/07 04:29:19;;;;;;;7.15;1.88;;;;;;;4.50;100.00;95174.59;5062138;28;20031;-83
2022/04/07 04:31:45;;;;;;;5.85;1.67;;;;;;;4.46;100.00;95191.72;5064162;28;20486;-85
2022/04/07 04:34:11;;;;;;;7.10;1.88;;;;;;;4.45;100.00;95198.72;5065667;28;20445;-86
2022/04/07 04:36:37;;;;;;;3.97;1.88;;;;;;;4.47;100.00;95211.44;5064621;28;20071;-86
2022/04/07 04:39:03;;;;;;;10.02;2.05;;;;;;;4.39;100.00;95208.28;5066914;28;20071;-83
2022/04/07 04:41:29;;;;;;;7.53;1.60;;;;;;;4.39;100.00;95203.09;5063450;28;20178;-85
2022/04/07 04:43:54;;;;;;;6.47;1.20;;;;;;;4.34;100.00;95194.50;5071971;28;20087;-85
2022/04/07 04:46:21;;;;;;;3.75;1.10;;;;;;;4.17;100.00;95164.25;5066552;28;20036;-83
2022/04/07 04:48:47;;;;;;;4.25;1.25;;;;;;;4.20;100.00;95194.91;5064794;28;20427;-84
2022/04/07 04:51:12;;;;;;;9.25;2.00;;;;;;;4.07;100.00;95182.38;5063017;28;20083;-84
2022/04/07 04:53:41;;;;;;;7.78;1.98;;;;;;;4.22;100.00;95199.84;5067328;28;20030;-85
2022/04/07 04:56:07;;;;;;;7.82;2.60;;;;;;;4.10;100.00;95179.28;5068511;28;20032;-84
2022/04/07 04:58:32;;;;;;;5.93;3.17;;;;;;;4.06;100.00;95178.97;5066324;28;20036;-84
2022/04/07 05:00:58;;;;;;;9.98;3.80;;;;;;;4.10;100.00;95194.84;5064230;28;20115;-84
2022/04/07 05:03:23;;;;;;;16.85;9.48;;;;;;;4.02;100.00;95183.09;5066268;28;20036;-84
2022/04/07 05:05:49;;;;;;;19.73;13.00;;;;;;;3.97;100.00;95163.09;5065203;28;20029;-85
2022/04/07 05:08:15;;;;;;;20.33;13.45;;;;;;;3.98;100.00;95153.50;5070469;28;20060;-85
2022/04/07 05:10:40;;;;;;;11.40;8.48;;;;;;;4.02;100.00;95162.34;5066617;28;20083;-85
2022/04/07 05:13:06;;;;;;;16.17;5.68;;;;;;;4.16;100.00;95159.34;5064177;28;20031;-84
2022/04/07 05:15:32;;;;;;;15.77;2.90;;;;;;;4.26;100.00;95173.16;5066329;28;20067;-85
2022/04/07 05:17:58;;;;;;;12.95;3.30;;;;;;;4.22;100.00;95161.69;5062777;28;20029;-86
2022/04/07 05:20:23;;;;;;;15.77;3.05;;;;;;;4.32;100.00;95163.56;5065848;28;20050;-85
2022/04/07 05:22:49;;;;;;;9.45;2.53;;;;;;;4.44;100.00;95158.22;5064186;28;20033;-84
2022/04/07 05:25:14;;;;;;;5.47;1.98;;;;;;;4.22;100.00;95147.94;5065407;28;20363;-85
2022/04/07 05:27:40;;;;;;;5.72;1.90;;;;;;;4.12;100.00;95172.78;5067704;28;20450;-85
2022/04/07 05:30:12;;;;;;;3.42;1.60;;;;;;;4.08;100.00;95156.16;5063291;28;20493;-84
2022/04/07 05:32:39;;;;;;;2.05;1.15;;;;;;;3.78;100.00;95141.13;5063182;28;20403;-85
2022/04/07 05:35:06;;;;;;;3.63;1.10;;;;;;;3.82;100.00;95166.34;5066766;28;20025;-84
2022/04/07 05:37:31;;;;;;;2.05;1.25;;;;;;;3.82;100.00;95132.63;5061530;28;20020;-84
2022/04/07 05:39:57;;;;;;;7.45;2.30;;;;;;;3.99;100.00;95155.06;5063196;28;20025;-84
2022/04/07 05:42:22;;;;;;;9.98;2.72;;;;;;;4.08;100.00;95135.41;5068618;28;20037;-85
2022/04/07 05:44:48;;;;;;;14.00;3.28;;;;;;;4.27;100.00;95143.56;5064260;28;20033;-85
2022/04/07 05:47:14;;;;;;;9.75;3.53;;;;;;;4.37;100.00;95153.25;5068056;28;20032;-85
2022/04/07 05:49:40;;;;;;;14.25;6.80;;;;;;;4.38;100.00;95128.84;5067930;28;20037;-80
2022/04/07 05:52:06;;;;;;;17.83;4.95;;;;;;;4.41;100.00;95123.13;5061312;28;20395;-82
2022/04/07 05:54:32;;;;;;;13.48;4.00;;;;;;;4.59;100.00;95144.53;5066090;28;20110;-83
2022/04/07 05:56:58;;;;;;;13.57;3.92;;;;;;;4.62;100.00;95131.03;5060455;28;20448;-82
2022/04/07 05:59:24;;;;;;;11.07;4.28;;;;;;;4.48;100.00;95090.97;5039908;28;20029;-82
2022/04/07 06:01:50;;;;;;;9.93;3.85;;;;;;;4.57;100.00;95146.59;5063420;28;20025;-82
2022/04/07 06:04:16;;;;;;;12.80;4.30;;;;;;;4.65;100.00;95148.69;5067738;28;20039;-82
2022/04/07 06:06:42;;;;;;;18.63;5.68;;;;;;;4.66;100.00;95152.09;5062224;28;20036;-83
2022/04/07 06:09:08;;;;;;;15.05;4.20;;;;;;;4.71;100.00;95167.69;5065322;28;20027;-82
2022/04/07 06:11:34;;;;;;;10.35;4.50;;;;;;;4.63;100.00;95202.72;5065910;28;20491;-83
2022/04/07 06:14:00;;;;;;;12.05;4.57;;;;;;;4.42;100.00;95166.25;5068288;28;20068;-83
2022/04/07 06:16:26;;;;;;;13.00;5.75;;;;;;;4.52;100.00;95159.53;5065453;28;20056;-83
2022/04/07 06:18:52;;;;;;;18.35;7.97;;;;;;;4.48;100.00;95172.25;5061171;28;20067;-82
2022/04/07 06:21:18;;;;;;;10.30;7.30;;;;;;;4.61;100.00;95157.25;5057404;28;20501;-82
2022/04/07 06:23:45;;;;;;;14.82;8.85;;;;;;;4.60;100.00;95197.22;5060268;28;20025;-82
2022/04/07 06:26:11;;;;;;;13.65;8.85;;;;;;;4.47;100.00;95185.47;5056963;28;20496;-82
2022/04/07 06:28:40;;;;;;;12.75;6.03;;;;;;;4.47;100.00;95193.28;5070255;28;20112;-83
2022/04/07 06:31:05;;;;;;;8.80;3.97;;;;;;;4.27;100.00;95205.09;5066592;28;20037;-81
2022/04/07 06:33:31;;;;;;;15.93;5.63;;;;;;;4.28;100.00;95201.44;5062392;28;20039;-81
2022/04/07 06:35:57;;;;;;;7.70;3.95;;;;;;;4.26;100.00;95204.31;5067454;28;20032;-88
2022/04/07 06:38:23;;;;;;;9.70;3.28;;;;;;;4.39;100.00;95187.53;5065746;28;20033;-89
2022/04/07 06:40:49;;;;;;;9.15;2.72;;;;;;;4.34;100.00;95178.91;5074300;28;20079;-88
2022/04/07 06:43:14;;;;;;;12.93;2.28;;;;;;;4.30;100.00;95178.63;5067799;28;20467;-88
2022/04/07 06:45:40;;;;;;;12.77;2.67;;;;;;;4.65;100.00;95190.25;5066218;28;20478;-84
2022/04/07 06:48:07;;;;;;;8.07;1.80;;;;;;;4.74;100.00;95210.59;5062792;28;20039;-83
2022/04/07 06:50:32;;;;;;;11.05;2.42;;;;;;;4.43;100.00;95165.22;5070729;28;20032;-82
2022/04/07 06:52:58;;;;;;;19.45;2.58;;;;;;;4.49;100.00;95170.44;5051820;28;20094;-84
2022/04/07 06:55:24;;;;;;;12.55;2.70;;;;;;;4.63;100.00;95181.16;5067663;28;20055;-84
2022/04/07 06:57:53;;;;;;;11.32;2.08;;;;;;;4.69;100.00;95183.53;5070098;28;20028;-86
2022/04/07 07:00:26;;;;;;;7.68;2.63;;;;;;;4.82;100.00;95242.06;5050542;28;20096;-84
2022/04/07 07:02:53;;;;;;;12.40;2.25;;;;;;;4.71;100.00;95176.25;5069245;28;20036;-83
2022/04/07 07:05:24;;;;;;;8.82;2.00;;;;;;;4.76;100.00;95192.94;5070908;28;20033;-83
2022/04/07 07:07:50;;;;;;;11.07;1.80;;;;;;;4.84;100.00;95226.22;5064080;28;20037;-83
2022/04/07 07:10:29;;;;;;;11.40;1.98;;;;;;;5.02;100.00;95188.63;5061487;28;20039;-82
2022/04/07 07:12:59;;;;;;;10.13;2.15;;;;;;;5.06;100.00;95191.47;5062446;28;20028;-83
2022/04/07 07:15:25;;;;;;;11.82;2.45;;;;;;;5.05;100.00;95216.72;5065907;28;20078;-83
2022/04/07 07:17:51;;;;;;;8.40;1.63;;;;;;;5.40;100.00;95235.28;5061806;28;20467;-84
2022/04/07 07:20:19;;;;;;;11.65;2.65;;;;;;;5.48;100.00;95250.38;5045712;28;20111;-83
2022/04/07 07:22:44;;;;;;;10.23;2.15;;;;;;;5.20;100.00;95246.38;5063714;28;20060;-82
2022/04/07 07:25:11;;;;;;;10.20;2.75;;;;;;;5.24;100.00;95243.03;5042509;28;20426;-83
2022/04/07 07:27:39;;;;;;;13.68;2.45;;;;;;;5.20;100.00;95257.56;5067512;28;20032;-83
2022/04/07 07:30:09;;;;;;;10.45;2.20;;;;;;;5.18;100.00;95254.44;5064193;28;20387;-83
2022/04/07 07:32:39;;;;;;;10.80;2.38;;;;;;;5.07;100.00;95273.63;5060003;28;20029;-81
2022/04/07 07:35:06;;;;;;;12.38;2.78;;;;;;;5.06;100.00;95244.25;5062563;28;20052;-81
2022/04/07 07:37:33;;;;;;;9.75;3.25;;;;;;;5.23;100.00;95251.09;5064244;28;20032;-81
2022/04/07 07:40:07;;;;;;;12.45;2.90;;;;;;;5.25;100.00;95327.78;5062545;28;20044;-83
2022/04/07 07:42:33;;;;;;;13.27;2.97;;;;;;;5.29;100.00;95261.25;5055525;28;20025;-82
2022/04/07 07:44:59;;;;;;;9.98;1.98;;;;;;;5.36;100.00;95289.63;5058930;28;20043;-82
2022/04/07 07:47:25;;;;;;;15.70;3.00;;;;;;;5.41;100.00;95291.47;5057948;28;20546;-83
2022/04/07 07:49:50;;;;;;;8.45;1.83;;;;;;;5.13;100.00;95298.63;5064117;28;20029;-82
2022/04/07 07:52:17;;;;;;;11.45;2.03;;;;;;;5.35;100.00;95297.69;5060813;28;20163;-81
2022/04/07 07:54:48;;;;;;;11.20;1.95;;;;;;;5.33;100.00;95286.75;5058265;28;20394;-80
2022/04/07 07:57:13;;;;;;;14.73;3.03;;;;;;;5.29;100.00;95250.06;5043001;28;20048;-81
2022/04/07 07:59:39;;;;;;;8.75;1.83;;;;;;;5.49;100.00;95298.00;5061080;28;20028;-82
2022/04/07 08:02:05;;;;;;;8.32;1.80;;;;;;;5.29;100.00;95313.25;5062470;28;20037;-81
2022/04/07 08:04:30;;;;;;;5.50;1.70;;;;;;;5.23;100.00;95282.31;5060283;28;20111;-80
2022/04/07 08:06:56;;;;;;;7.15;1.70;;;;;;;5.51;100.00;95307.13;5061000;28;20394;-82
2022/04/07 08:09:21;;;;;;;9.82;1.92;;;;;;;5.42;100.00;95317.22;5061711;28;20070;-81
2022/04/07 08:11:47;;;;;;;6.68;1.23;;;;;;;5.31;100.00;95357.22;5045652;28;20028;-79
2022/04/07 08:14:13;;;;;;;6.55;1.70;;;;;;;5.21;100.00;95325.94;5060810;28;20044;-82
2022/04/07 08:16:39;;;;;;;6.57;1.60;;;;;;;5.16;100.00;95329.31;5060006;28;20083;-81
2022/04/07 08:19:05;;;;;;;6.90;1.30;;;;;;;5.55;100.00;95336.00;5058211;28;20569;-82
2022/04/07 08:21:32;;;;;;;6.00;1.50;;;;;;;5.61;100.00;95365.44;5062159;28;20095;-82
2022/04/07 08:23:58;;;;;;;5.47;1.50;;;;;;;5.64;100.00;95359.72;5060758;28;20079;-82
2022/04/07 08:26:23;;;;;;;10.57;2.40;;;;;;;5.85;100.00;95363.97;5060208;28;20060;-80
2022/04/07 08:28:49;;;;;;;8.90;2.05;;;;;;;5.71;100.00;95362.88;5063070;28;20028;-80
2022/04/07 08:31:16;;;;;;;15.02;2.42;;;;;;;5.76;100.00;95381.13;5058746;28;20487;-80
2022/04/07 08:33:41;;;;;;;8.35;1.92;;;;;;;5.80;100.00;95420.44;5069700;28;20025;-81
2022/04/07 08:36:09;;;;;;;9.38;1.90;;;;;;;5.80;100.00;95378.78;5063125;28;20040;-80
2022/04/07 08:38:35;;;;;;;10.05;2.20;;;;;;;5.65;100.00;95400.31;5055977;28;20478;-80
2022/04/07 08:41:01;;;;;;;9.02;1.35;;;;;;;5.49;100.00;95447.03;5063149;28;20033;-80
2022/04/07 08:43:26;;;;;;;2.40;1.20;;;;;;;5.36;100.00;95447.50;5043619;28;20035;-80
2022/04/07 08:45:52;;;;;;;2.60;0.93;;;;;;;5.07;100.00;95465.97;5059729;28;20533;-80
2022/04/07 08:48:21;;;;;;;3.95;1.20;;;;;;;4.96;100.00;95457.31;5062270;28;20041;-81
2022/04/07 08:50:49;;;;;;;6.80;1.10;;;;;;;4.80;100.00;95472.00;5047565;28;20425;-81
2022/04/07 08:53:15;;;;;;;6.75;1.27;;;;;;;4.67;100.00;95491.34;5042315;28;20060;-81
2022/04/07 08:55:41;;;;;;;1.63;0.85;;;;;;;4.68;100.00;95472.13;5065807;28;20119;-81
2022/04/07 08:58:10;;;;;;;3.20;1.00;;;;;;;4.47;100.00;95484.91;5063515;28;21451;-81
2022/04/07 09:00:36;;;;;;;3.70;1.10;;;;;;;4.35;100.00;95472.06;5056292;28;20045;-81
2022/04/07 09:03:01;;;;;;;5.15;1.13;;;;;;;4.37;100.00;95479.59;5044966;28;20035;-81
2022/04/07 09:05:27;;;;;;;5.03;1.67;;;;;;;4.56;100.00;95474.88;5068000;28;20093;-82
2022/04/07 09:07:54;;;;;;;10.90;1.45;;;;;;;4.83;100.00;95494.88;5045890;28;20032;-82
2022/04/07 09:10:23;;;;;;;12.27;1.73;;;;;;;5.02;100.00;95497.13;5070476;28;20078;-81
2022/04/07 09:12:52;;;;;;;7.50;1.83;;;;;;;5.25;100.00;95507.22;5062994;28;20020;-82
2022/04/07 09:15:19;;;;;;;10.45;1.95;;;;;;;5.52;100.00;95524.59;5067327;28;20086;-86
2022/04/07 09:17:55;;;;;;;8.93;1.73;;;;;;;5.94;100.00;95541.25;5046020;28;20029;-86
2022/04/07 09:20:22;;;;;;;12.50;2.30;;;;;;;6.29;100.00;95573.00;5066094;28;20025;-87
2022/04/07 09:23:01;;;;;;;7.80;2.42;;;;;;;6.09;100.00;95543.22;5048527;28;20569;-84
2022/04/07 09:25:27;;;;;;;15.10;2.63;;;;;;;6.28;100.00;95572.22;5060546;28;20032;-86
2022/04/07 09:27:57;;;;;;;15.10;3.33;;;;;;;5.52;100.00;95575.84;5065713;28;20056;-85
2022/04/07 09:30:23;;;;;;;11.35;2.55;;;;;;;5.68;100.00;95594.94;5046443;28;20049;-82
2022/04/07 09:32:49;;;;;;;8.15;1.63;;;;;;;5.39;100.00;95610.84;5063184;28;20071;-82
2022/04/07 09:35:15;;;;;;;2.90;1.25;;;;;;;5.20;100.00;95590.38;5064294;28;20056;-82
2022/04/07 09:37:43;;;;;;;5.00;1.00;;;;;;;5.04;100.00;95592.03;5063624;28;20025;-81
2022/04/07 09:40:14;;;;;;;6.60;1.45;;;;;;;5.38;100.00;95604.06;5060006;28;20037;-83
2022/04/07 09:42:44;;;;;;;8.82;2.35;;;;;;;5.33;100.00;95604.03;5045481;28;20029;-83
2022/04/07 09:45:14;;;;;;;12.15;2.50;;;;;;;5.77;100.00;95598.69;5059299;28;20136;-83
2022/04/07 09:47:42;;;;;;;9.80;2.75;;;;;;;6.10;100.00;95612.47;5061141;28;20033;-81
2022/04/07 09:50:19;;;;;;;10.20;2.40;;;;;;;6.40;100.00;95613.69;5056700;28;20032;-81
2022/04/07 09:52:58;;;;;;;12.98;2.97;;;;;;;6.56;100.00;95598.16;5044569;28;20150;-81
2022/04/07 09:55:37;;;;;;;8.40;2.22;;;;;;;6.45;100.00;95612.94;5060669;28;20044;-83
2022/04/07 09:58:04;;;;;;;13.63;2.33;;;;;;;6.86;100.00;95623.56;5066057;28;20037;-82
2022/04/07 10:00:31;;;;;;;7.28;2.25;;;;;;;7.06;100.00;95621.25;5061176;28;20028;-82
2022/04/07 10:02:57;;;;;;;6.18;1.80;;;;;;;7.00;100.00;95638.72;5045203;28;20425;-81
2022/04/07 10:05:23;;;;;;;11.63;2.13;;;;;;;6.94;100.00;95627.50;5065387;28;20389;-83
2022/04/07 10:07:50;;;;;;;14.75;2.38;;;;;;;6.94;100.00;95624.09;5066365;28;20825;-81
2022/04/07 10:10:18;;;;;;;12.68;3.38;;;;;;;6.77;100.00;95632.13;5061262;28;20029;-82
2022/04/07 10:12:47;;;;;;;8.80;1.98;;;;;;;6.68;100.00;95643.03;5047327;28;20020;-81
2022/04/07 10:15:14;;;;;;;18.27;2.88;;;;;;;6.40;100.00;95611.09;5060267;28;20528;-82
2022/04/07 10:17:40;;;;;;;10.05;2.33;;;;;;;6.86;100.00;95609.72;5047888;28;20059;-84
2022/04/07 10:20:09;;;;;;;10.75;2.33;;;;;;;6.97;100.00;95613.16;5060063;28;20040;-82
2022/04/07 10:22:47;;;;;;;9.25;2.63;;;;;;;7.20;100.00;95648.44;5063736;28;20060;-82
2022/04/07 10:25:15;;;;;;;11.18;2.20;;;;;;;7.04;100.00;95684.13;5063773;28;20040;-86
2022/04/07 10:27:49;;;;;;;9.20;2.42;;;;;;;7.15;100.00;95656.25;5061527;28;20031;-82
2022/04/07 10:30:16;;;;;;;10.25;2.30;;;;;;;7.40;100.00;95652.13;5062996;28;20108;-82
2022/04/07 10:32:46;;;;;;;9.20;2.83;;;;;;;7.18;100.00;95614.00;5043294;28;20029;-80
2022/04/07 10:35:30;;;;;;;8.48;2.28;;;;;;;7.83;100.00;95671.00;5045678;28;20029;-82
2022/04/07 10:37:56;;;;;;;;;;;;;;;7.99;100.00;95663.19;5044905;28;20028;-81
2022/04/07 10:40:49;;;;;;;4.93;1.50;;;;;;;7.61;100.00;95666.03;5061109;28;20412;-81
2022/04/07 10:43:14;;;;;;;5.03;1.45;;;;;;;7.58;100.00;95679.59;5046011;28;20067;-85
2022/04/07 10:46:02;;;;;;;6.22;1.40;;;;;;;7.14;100.00;95681.53;5047827;28;20061;-87
2022/04/07 10:48:32;;;;;;;5.40;1.63;;;;;;;6.65;100.00;95677.41;5068044;28;20104;-85
2022/04/07 10:51:11;;;;;;;5.30;1.50;;;;;;;6.80;100.00;95678.53;5066851;28;20040;-82
2022/04/07 10:53:53;;;;;;;9.60;1.80;;;;;;;6.97;100.00;95689.56;5060396;28;20060;-82
2022/04/07 10:56:33;;;;;;;5.47;1.80;;;;;;;6.81;100.00;95657.44;5061639;28;20033;-82
2022/04/07 10:59:18;;;;;;;5.40;1.48;;;;;;;7.07;100.00;95660.13;5047834;28;20071;-83
2022/04/07 11:01:46;;;;;;;10.68;2.30;;;;;;;7.39;100.00;95697.53;5063826;28;20033;-83
2022/04/07 11:04:18;;;;;;;10.48;2.70;;;;;;;7.74;100.00;95706.50;5057320;28;20127;-82
2022/04/07 11:07:05;;;;;;;12.23;2.25;;;;;;;7.79;100.00;95716.94;5063299;28;20056;-83
2022/04/07 11:09:42;;;;;;;5.97;1.88;;;;;;;6.57;100.00;95737.81;5061326;28;20032;-83
2022/04/07 11:12:29;;;;;;;3.10;1.15;;;;;;;6.07;100.00;95748.34;5057393;28;20021;-83
2022/04/07 11:15:02;;;;;;;8.38;1.35;;;;;;;6.02;100.00;95709.25;5059111;28;20386;-83
2022/04/07 11:17:43;;;;;;;9.90;1.73;;;;;;;6.09;100.00;95732.50;5059843;28;20025;-83
2022/04/07 11:20:16;;;;;;;6.90;1.80;;;;;;;6.39;100.00;95817.94;5058934;28;20032;-83
2022/04/07 11:23:13;;;;;;;6.77;1.90;;;;;;;6.83;100.00;95770.06;5059173;28;20051;-82
2022/04/07 11:25:43;;;;;;;6.43;1.70;;;;;;;6.79;100.00;95765.59;5046013;28;20042;-83
2022/04/07 11:28:17;;;;;;;2.78;0.95;;;;;;;6.67;100.00;95765.78;5060012;28;20471;-83
2022/04/07 11:30:54;;;;;;;1.35;0.90;;;;;;;5.91;100.00;95786.44;5060349;28;20108;-83